createdAt,value
2022-11-17T00:01:54.259Z,79.68
2022-11-17T00:04:28.959Z,79.95
2022-11-17T00:07:00.795Z,78.77
2022-11-17T00:09:32.717Z,79.30
2022-11-17T00:12:23.572Z,79.31
2022-11-17T00:14:55.976Z,78.99
2022-11-17T00:17:27.924Z,79.43
2022-11-17T00:20:18.451Z,79.33
2022-11-17T00:22:50.688Z,79.40
2022-11-17T00:25:22.736Z,78.64
2022-11-17T00:27:54.903Z,79.06
2022-11-17T00:30:45.386Z,78.99
2022-11-17T00:33:36.592Z,78.16
2022-11-17T00:36:08.818Z,78.58
2022-11-17T00:38:40.707Z,78.54
2022-11-17T00:41:12.565Z,78.50
2022-11-17T00:43:44.473Z,78.60
2022-11-17T00:46:16.317Z,77.74
2022-11-17T00:48:48.283Z,78.17
2022-11-17T00:51:20.720Z,78.03
2022-11-17T00:53:52.944Z,78.33
2022-11-17T00:56:27.874Z,78.40
2022-11-17T00:59:00.304Z,78.28
2022-11-17T01:01:32.464Z,78.20
2022-11-17T01:04:04.952Z,78.29
2022-11-17T01:06:39.456Z,78.00
2022-11-17T01:09:19.754Z,77.19
2022-11-17T01:11:52.931Z,78.03
2022-11-17T01:14:27.489Z,78.20
2022-11-17T01:16:59.513Z,77.50
2022-11-17T01:19:31.422Z,77.87
2022-11-17T01:22:03.885Z,78.17
2022-11-17T01:24:35.822Z,77.83
2022-11-17T01:27:08.176Z,78.11
2022-11-17T01:29:40.053Z,77.13
2022-11-17T01:32:11.847Z,77.60
2022-11-17T01:34:43.718Z,77.67
2022-11-17T01:37:21.863Z,77.74
2022-11-17T01:39:53.709Z,77.94
2022-11-17T01:42:26.994Z,77.89
2022-11-17T01:45:02.693Z,77.39
2022-11-17T01:47:36.042Z,77.65
2022-11-17T01:50:22.535Z,77.28
2022-11-17T01:52:56.914Z,77.69
2022-11-17T01:55:38.034Z,77.74
2022-11-17T01:58:14.530Z,77.10
2022-11-17T02:00:46.439Z,77.64
2022-11-17T02:03:18.353Z,77.43
2022-11-17T02:06:08.260Z,77.36
2022-11-17T02:08:41.688Z,77.19
2022-11-17T02:11:17.039Z,76.94
2022-11-17T02:13:49.206Z,77.08
2022-11-17T02:16:21.024Z,77.08
2022-11-17T02:18:52.948Z,76.55
2022-11-17T02:21:39.954Z,76.68
2022-11-17T02:24:45.624Z,76.30
2022-11-17T02:27:30.912Z,76.10
2022-11-17T02:30:06.164Z,76.88
2022-11-17T02:33:13.006Z,76.05
2022-11-17T02:36:19.331Z,75.74
2022-11-17T02:39:03.421Z,76.01
2022-11-17T02:41:45.102Z,76.06
2022-11-17T02:44:37.707Z,76.22
2022-11-17T02:47:14.938Z,76.20
2022-11-17T02:49:50.638Z,75.88
2022-11-17T02:52:23.149Z,76.54
2022-11-17T02:55:02.949Z,75.79
2022-11-17T02:57:37.110Z,75.97
2022-11-17T03:00:11.151Z,75.94
2022-11-17T03:03:01.958Z,76.15
2022-11-17T03:05:36.758Z,76.03
2022-11-17T03:08:17.774Z,76.00
2022-11-17T03:10:57.364Z,75.47
2022-11-17T03:13:35.254Z,75.42
2022-11-17T03:16:16.445Z,75.60
2022-11-17T03:19:18.420Z,74.79
2022-11-17T03:21:56.190Z,75.81
2022-11-17T03:24:28.982Z,75.46
2022-11-17T03:27:04.855Z,75.44
2022-11-17T03:29:38.723Z,75.38
2022-11-17T03:32:11.296Z,75.81
2022-11-17T03:34:46.332Z,75.24
2022-11-17T03:37:19.329Z,75.58
2022-11-17T03:39:53.341Z,75.42
2022-11-17T03:42:30.685Z,75.50
2022-11-17T03:45:09.178Z,75.21
2022-11-17T03:47:42.236Z,75.72
2022-11-17T03:50:18.737Z,75.24
2022-11-17T03:52:51.216Z,75.16
2022-11-17T03:55:26.872Z,74.74
2022-11-17T03:58:06.844Z,74.83
2022-11-17T04:00:40.577Z,75.21
2022-11-17T04:03:12.729Z,75.20
2022-11-17T04:05:45.704Z,74.48
2022-11-17T04:08:19.645Z,75.07
2022-11-17T04:11:10.379Z,75.29
2022-11-17T04:14:01.008Z,75.11
2022-11-17T04:16:32.969Z,74.89
2022-11-17T04:19:04.808Z,75.25
2022-11-17T04:21:36.846Z,75.46
2022-11-17T04:24:08.938Z,75.31
2022-11-17T04:26:59.440Z,75.01
2022-11-17T04:29:31.339Z,74.87
2022-11-17T04:32:03.603Z,74.37
2022-11-17T04:34:35.708Z,74.81
2022-11-17T04:37:17.237Z,74.82
2022-11-17T04:39:49.173Z,75.26
2022-11-17T04:42:21.031Z,75.14
2022-11-17T04:44:52.923Z,74.97
2022-11-17T04:47:24.848Z,75.02
2022-11-17T04:49:56.640Z,74.93
2022-11-17T04:52:30.024Z,74.66
2022-11-17T04:55:02.057Z,75.21
2022-11-17T04:57:33.917Z,75.17
2022-11-17T05:00:06.556Z,74.56
2022-11-17T05:02:38.493Z,74.93
2022-11-17T05:05:10.323Z,74.78
2022-11-17T05:07:42.139Z,74.70
2022-11-17T05:10:14.987Z,74.92
2022-11-17T05:13:05.203Z,74.97
2022-11-17T05:15:55.669Z,74.93
2022-11-17T05:18:27.496Z,75.04
2022-11-17T05:21:04.016Z,74.77
2022-11-17T05:23:55.024Z,74.79
2022-11-17T05:26:29.649Z,74.85
2022-11-17T05:29:03.393Z,74.86
2022-11-17T05:31:35.616Z,74.76
2022-11-17T05:34:09.393Z,75.04
2022-11-17T05:36:41.880Z,75.29
2022-11-17T05:39:14.094Z,74.96
2022-11-17T05:41:46.021Z,75.05
2022-11-17T05:44:17.869Z,74.64
2022-11-17T05:46:49.891Z,74.97
2022-11-17T05:49:21.722Z,75.16
2022-11-17T05:51:53.840Z,75.35
2022-11-17T05:54:26.996Z,75.00
2022-11-17T05:57:05.982Z,74.54
2022-11-17T05:59:45.102Z,75.05
2022-11-17T06:02:31.538Z,74.99
2022-11-17T06:05:04.087Z,75.11
2022-11-17T06:07:36.907Z,75.48
2022-11-17T06:10:09.433Z,75.16
2022-11-17T06:12:41.263Z,75.01
2022-11-17T06:15:13.242Z,74.70
2022-11-17T06:17:52.421Z,75.13
2022-11-17T06:20:32.101Z,74.80
2022-11-17T06:23:06.258Z,75.07
2022-11-17T06:25:39.090Z,75.04
2022-11-17T06:28:13.871Z,74.88
2022-11-17T06:30:45.746Z,74.95
2022-11-17T06:33:19.224Z,75.10
2022-11-17T06:35:51.225Z,74.93
2022-11-17T06:38:23.116Z,74.95
2022-11-17T06:40:55.742Z,74.46
2022-11-17T06:43:27.706Z,74.58
2022-11-17T06:46:05.827Z,74.29
2022-11-17T06:48:38.467Z,74.65
2022-11-17T06:51:10.687Z,74.78
2022-11-17T06:53:42.620Z,74.58
2022-11-17T06:56:16.969Z,74.91
2022-11-17T06:58:48.974Z,74.46
2022-11-17T07:01:20.998Z,74.39
2022-11-17T07:03:52.991Z,74.78
2022-11-17T07:06:24.980Z,74.58
2022-11-17T07:08:57.025Z,74.82
2022-11-17T07:11:29.324Z,74.81
2022-11-17T07:14:01.466Z,74.71
2022-11-17T07:16:34.175Z,74.58
2022-11-17T07:19:08.296Z,74.35
2022-11-17T07:21:40.204Z,74.63
2022-11-17T07:24:12.057Z,74.50
2022-11-17T07:26:43.989Z,74.75
2022-11-17T07:29:15.986Z,74.80
2022-11-17T07:31:48.146Z,74.54
2022-11-17T07:34:20.092Z,74.45
2022-11-17T07:36:51.908Z,74.73
2022-11-17T07:39:23.713Z,74.52
2022-11-17T07:41:56.835Z,74.42
2022-11-17T07:44:30.489Z,74.57
2022-11-17T07:47:02.652Z,74.38
2022-11-17T07:49:35.102Z,74.50
2022-11-17T07:52:07.050Z,74.40
2022-11-17T07:54:39.040Z,74.54
2022-11-17T07:57:11.023Z,74.78
2022-11-17T07:59:43.202Z,74.70
2022-11-17T08:02:15.177Z,74.69
2022-11-17T08:04:47.124Z,74.90
2022-11-17T08:07:19.090Z,74.71
2022-11-17T08:09:51.172Z,74.35
2022-11-17T08:12:28.193Z,74.76
2022-11-17T08:15:03.825Z,74.56
2022-11-17T08:17:35.714Z,75.04
2022-11-17T08:20:08.386Z,74.66
2022-11-17T08:22:40.742Z,74.81
2022-11-17T08:25:13.873Z,74.93
2022-11-17T08:27:46.006Z,74.82
2022-11-17T08:30:19.414Z,74.92
2022-11-17T08:32:55.316Z,74.83
2022-11-17T08:35:30.730Z,74.97
2022-11-17T08:38:16.820Z,74.82
2022-11-17T08:40:49.102Z,74.92
2022-11-17T08:43:21.356Z,74.95
2022-11-17T08:45:53.249Z,74.93
2022-11-17T08:48:25.571Z,75.33
2022-11-17T08:50:58.025Z,75.32
2022-11-17T08:53:29.922Z,75.62
2022-11-17T08:56:02.042Z,75.23
2022-11-17T08:58:44.769Z,75.19
2022-11-17T09:01:21.115Z,75.51
2022-11-17T09:03:53.241Z,75.65
2022-11-17T09:06:25.157Z,75.25
2022-11-17T09:08:57.831Z,75.44
2022-11-17T09:11:29.956Z,75.53
2022-11-17T09:14:02.537Z,75.77
2022-11-17T09:16:35.107Z,75.86
2022-11-17T09:19:07.248Z,75.76
2022-11-17T09:21:39.181Z,75.78
2022-11-17T09:24:11.853Z,75.87
2022-11-17T09:26:44.688Z,76.19
2022-11-17T09:29:17.214Z,75.89
2022-11-17T09:31:49.893Z,75.73
2022-11-17T09:34:22.037Z,75.98
2022-11-17T09:36:54.079Z,75.77
2022-11-17T09:39:26.034Z,75.70
2022-11-17T09:41:58.108Z,75.56
2022-11-17T09:44:40.399Z,75.81
2022-11-17T09:47:24.669Z,75.93
2022-11-17T09:50:11.547Z,75.69
2022-11-17T09:53:05.444Z,75.53
2022-11-17T09:55:40.056Z,75.85
2022-11-17T09:58:35.146Z,75.79
2022-11-17T10:01:12.416Z,75.99
2022-11-17T10:03:47.831Z,75.70
2022-11-17T10:06:22.097Z,75.72
2022-11-17T10:09:11.338Z,75.86
2022-11-17T10:11:44.229Z,76.22
2022-11-17T10:14:19.140Z,75.75
2022-11-17T10:16:53.987Z,76.17
2022-11-17T10:19:31.254Z,76.09
2022-11-17T10:22:03.235Z,75.75
2022-11-17T10:24:44.239Z,75.93
2022-11-17T10:27:33.462Z,75.86
2022-11-17T10:30:22.613Z,75.54
2022-11-17T10:32:56.909Z,75.77
2022-11-17T10:35:34.098Z,75.85
2022-11-17T10:38:20.892Z,75.98
2022-11-17T10:40:53.545Z,76.25
2022-11-17T10:43:35.595Z,77.40
2022-11-17T10:46:14.337Z,77.16
2022-11-17T10:49:00.916Z,77.91
2022-11-17T10:51:34.088Z,77.64
2022-11-17T10:54:08.977Z,77.89
2022-11-17T10:56:46.770Z,77.89
2022-11-17T10:59:32.432Z,78.03
2022-11-17T11:02:39.730Z,78.56
2022-11-17T11:05:14.158Z,78.23
2022-11-17T11:07:46.044Z,78.86
2022-11-17T11:10:20.159Z,79.36
2022-11-17T11:12:59.258Z,80.03
2022-11-17T11:15:34.563Z,80.51
2022-11-17T11:18:17.450Z,80.90
2022-11-17T11:21:13.529Z,80.76
2022-11-17T11:24:06.989Z,81.26
2022-11-17T11:27:00.613Z,81.42
2022-11-17T11:29:47.406Z,81.63
2022-11-17T11:32:49.241Z,81.87
2022-11-17T11:35:55.714Z,81.84
2022-11-17T11:38:42.549Z,82.35
2022-11-17T11:41:41.954Z,83.48
2022-11-17T11:44:23.857Z,83.63
2022-11-17T11:47:11.458Z,84.03
2022-11-17T11:49:50.334Z,84.00
2022-11-17T11:52:26.666Z,84.43
2022-11-17T11:55:20.868Z,84.94
2022-11-17T11:58:01.274Z,85.18
2022-11-17T12:00:33.794Z,85.12
2022-11-17T12:03:16.100Z,86.38
2022-11-17T12:06:32.934Z,86.39
2022-11-17T12:09:20.063Z,87.11
2022-11-17T12:12:02.672Z,87.70
2022-11-17T12:14:37.136Z,87.83
2022-11-17T12:17:14.732Z,89.11
2022-11-17T12:19:55.020Z,89.23
2022-11-17T12:22:29.634Z,89.22
2022-11-17T12:25:12.781Z,90.18
2022-11-17T12:27:49.896Z,89.86
2022-11-17T12:30:30.590Z,90.47
2022-11-17T12:33:08.426Z,90.28
2022-11-17T12:35:40.267Z,90.91
2022-11-17T12:38:15.377Z,91.20
2022-11-17T12:40:48.117Z,91.73
2022-11-17T12:43:23.983Z,92.05
2022-11-17T12:45:55.831Z,92.15
2022-11-17T12:48:35.837Z,92.56
2022-11-17T12:51:27.781Z,92.28
2022-11-17T12:54:03.409Z,92.21
2022-11-17T12:56:40.690Z,92.69
2022-11-17T12:59:21.281Z,91.94
2022-11-17T13:02:00.304Z,92.94
2022-11-17T13:04:43.751Z,92.53
2022-11-17T13:07:22.159Z,92.55
2022-11-17T13:09:59.152Z,92.90
2022-11-17T13:12:33.068Z,92.86
2022-11-17T13:15:05.777Z,92.34
2022-11-17T13:17:44.053Z,92.45
2022-11-17T13:20:26.960Z,93.08
2022-11-17T13:23:03.015Z,93.24
2022-11-17T13:29:26.618Z,92.99
2022-11-17T13:32:13.682Z,93.39
2022-11-17T13:34:50.646Z,94.27
2022-11-17T13:37:25.276Z,93.35
2022-11-17T13:40:19.808Z,92.93
2022-11-17T13:42:51.801Z,93.80
2022-11-17T13:45:23.877Z,93.57
2022-11-17T13:47:59.447Z,93.33
2022-11-17T13:50:31.474Z,93.21
2022-11-17T13:53:05.648Z,93.02
2022-11-17T13:55:44.126Z,92.58
2022-11-17T13:58:27.280Z,92.48
2022-11-17T14:00:59.665Z,93.09
2022-11-17T14:03:35.821Z,93.53
2022-11-17T14:06:10.040Z,92.78
2022-11-17T14:08:44.031Z,92.31
2022-11-17T14:11:21.241Z,92.63
2022-11-17T14:13:58.779Z,93.04
2022-11-17T14:16:35.101Z,93.31
2022-11-17T14:19:16.337Z,92.50
2022-11-17T14:22:09.628Z,92.78
2022-11-17T14:24:41.412Z,93.85
2022-11-17T14:27:37.016Z,93.95
2022-11-17T14:30:10.574Z,94.88
2022-11-17T14:32:42.443Z,95.21
2022-11-17T14:35:15.377Z,96.05
2022-11-17T14:37:47.604Z,96.06
2022-11-17T14:40:19.699Z,96.04
2022-11-17T14:42:51.546Z,96.63
2022-11-17T14:45:23.435Z,96.04
2022-11-17T14:47:55.511Z,96.62
2022-11-17T14:50:27.454Z,97.17
2022-11-17T14:52:59.805Z,96.45
2022-11-17T14:55:31.652Z,96.61
2022-11-17T14:58:03.612Z,96.48
2022-11-17T15:00:35.474Z,96.92
2022-11-17T15:03:07.700Z,96.78
2022-11-17T15:05:46.202Z,95.99
2022-11-17T15:08:18.148Z,96.33
2022-11-17T15:10:51.265Z,96.67
2022-11-17T15:13:23.120Z,95.95
2022-11-17T15:16:04.233Z,96.25
2022-11-17T15:18:36.394Z,96.59
2022-11-17T15:21:10.354Z,95.68
2022-11-17T15:23:43.389Z,95.55
2022-11-17T15:26:18.740Z,95.38
2022-11-17T15:28:50.656Z,95.64
2022-11-17T15:31:22.525Z,96.30
2022-11-17T15:33:54.474Z,96.20
2022-11-17T15:36:26.552Z,96.49
2022-11-17T15:38:58.677Z,96.46
2022-11-17T15:41:33.058Z,96.41
2022-11-17T15:44:05.243Z,96.74
2022-11-17T15:46:37.120Z,96.64
2022-11-17T15:49:09.001Z,96.58
2022-11-17T15:51:41.077Z,96.42
2022-11-17T15:54:18.421Z,96.43
2022-11-17T15:56:53.014Z,96.57
2022-11-17T15:59:24.902Z,96.88
2022-11-17T16:01:56.795Z,96.97
2022-11-17T16:04:28.893Z,96.58
2022-11-17T16:07:00.841Z,96.43
2022-11-17T16:09:34.453Z,96.35
2022-11-17T16:12:06.523Z,96.79
2022-11-17T16:14:38.953Z,96.75
2022-11-17T16:17:10.825Z,96.86
2022-11-17T16:19:42.804Z,96.63
2022-11-17T16:22:14.874Z,96.56
2022-11-17T16:24:46.831Z,96.88
2022-11-17T16:27:18.841Z,96.93
2022-11-17T16:29:50.783Z,97.07
2022-11-17T16:32:22.816Z,97.25
2022-11-17T16:34:55.088Z,96.88
2022-11-17T16:37:27.390Z,96.94
2022-11-17T16:40:01.335Z,96.98
2022-11-17T16:42:33.331Z,96.41
2022-11-17T16:45:05.791Z,96.51
2022-11-17T16:47:38.121Z,97.28
2022-11-17T16:50:10.271Z,96.57
2022-11-17T16:52:45.045Z,96.55
2022-11-17T16:55:17.253Z,97.55
2022-11-17T16:57:49.434Z,97.26
2022-11-17T17:00:21.557Z,97.27
2022-11-17T17:02:53.982Z,97.02
2022-11-17T17:05:26.182Z,96.58
2022-11-17T17:07:58.154Z,96.43
2022-11-17T17:10:30.160Z,96.42
2022-11-17T17:13:02.086Z,96.23
2022-11-17T17:15:34.034Z,96.47
2022-11-17T17:18:06.474Z,96.77
2022-11-17T17:20:38.337Z,96.75
2022-11-17T17:23:10.652Z,96.43
2022-11-17T17:25:43.046Z,96.47
2022-11-17T17:28:15.119Z,96.31
2022-11-17T17:30:53.858Z,95.67
2022-11-17T17:33:27.054Z,96.07
2022-11-17T17:36:06.820Z,95.56
2022-11-17T17:38:39.199Z,96.42
2022-11-17T17:41:16.682Z,96.29
2022-11-17T17:43:55.116Z,95.62
2022-11-17T17:46:29.872Z,96.06
2022-11-17T17:49:02.399Z,96.36
2022-11-17T17:51:38.061Z,96.22
2022-11-17T17:54:17.282Z,96.53
2022-11-17T17:56:49.571Z,97.51
2022-11-17T17:59:21.464Z,97.02
2022-11-17T18:01:53.496Z,96.81
2022-11-17T18:04:25.627Z,96.39
2022-11-17T18:06:59.371Z,96.21
2022-11-17T18:09:31.416Z,96.25
2022-11-17T18:12:03.594Z,95.54
2022-11-17T18:14:35.640Z,96.36
2022-11-17T18:17:07.567Z,96.34
2022-11-17T18:19:39.990Z,95.72
2022-11-17T18:22:12.134Z,95.77
2022-11-17T18:24:44.072Z,95.77
2022-11-17T18:27:16.259Z,94.95
2022-11-17T18:29:48.510Z,95.46
2022-11-17T18:32:20.909Z,95.01
2022-11-17T18:34:52.978Z,95.14
2022-11-17T18:37:24.872Z,95.10
2022-11-17T18:39:56.925Z,94.48
2022-11-17T18:42:28.989Z,95.00
2022-11-17T18:45:00.853Z,94.75
2022-11-17T18:47:32.927Z,94.48
2022-11-17T18:50:05.163Z,95.00
2022-11-17T18:52:37.350Z,94.90
2022-11-17T18:55:09.488Z,94.79
2022-11-17T18:57:44.888Z,95.17
2022-11-17T19:00:17.814Z,95.09
2022-11-17T19:02:49.781Z,94.83
2022-11-17T19:05:21.852Z,95.16
2022-11-17T19:07:56.315Z,95.08
2022-11-17T19:10:28.214Z,94.07
2022-11-17T19:13:00.289Z,94.64
2022-11-17T19:15:32.459Z,93.73
2022-11-17T19:18:04.519Z,94.04
2022-11-17T19:20:36.661Z,94.32
2022-11-17T19:23:08.661Z,94.61
2022-11-17T19:25:42.248Z,93.86
2022-11-17T19:28:14.988Z,94.58
2022-11-17T19:30:46.976Z,94.55
2022-11-17T19:33:18.992Z,94.84
2022-11-17T19:35:50.918Z,94.74
2022-11-17T19:38:22.939Z,93.89
2022-11-17T19:40:54.940Z,94.45
2022-11-17T19:43:26.910Z,93.29
2022-11-17T19:46:00.311Z,92.90
2022-11-17T19:48:32.588Z,94.42
2022-11-17T19:51:20.389Z,92.40
2022-11-17T19:53:54.687Z,92.91
2022-11-17T19:56:26.916Z,94.39
2022-11-17T19:58:59.204Z,94.27
2022-11-17T20:01:33.071Z,94.08
2022-11-17T20:04:07.295Z,94.51
2022-11-17T20:06:39.539Z,94.43
2022-11-17T20:09:13.675Z,93.52
2022-11-17T20:11:45.823Z,94.14
2022-11-17T20:14:18.091Z,94.89
2022-11-17T20:16:50.159Z,94.87
2022-11-17T20:19:22.068Z,94.45
2022-11-17T20:21:53.898Z,95.78
2022-11-17T20:24:25.911Z,95.93
2022-11-17T20:26:57.745Z,95.99
2022-11-17T20:29:29.673Z,96.24
2022-11-17T20:32:01.996Z,96.83
2022-11-17T20:34:33.980Z,96.62
2022-11-17T20:37:05.890Z,96.43
2022-11-17T20:39:38.033Z,97.07
2022-11-17T20:42:10.392Z,97.39
2022-11-17T20:44:42.663Z,97.90
2022-11-17T20:47:15.043Z,97.86
2022-11-17T20:49:46.947Z,98.18
2022-11-17T20:52:18.948Z,98.68
2022-11-17T20:54:50.835Z,98.84
2022-11-17T20:57:22.825Z,99.02
2022-11-17T20:59:54.759Z,98.49
2022-11-17T21:02:26.662Z,98.60
2022-11-17T21:04:58.817Z,98.92
2022-11-17T21:07:30.750Z,99.19
2022-11-17T21:10:03.062Z,98.67
2022-11-17T21:12:35.084Z,98.44
2022-11-17T21:15:07.484Z,98.09
2022-11-17T21:17:58.132Z,98.73
2022-11-17T21:20:30.142Z,98.98
2022-11-17T21:23:02.374Z,98.92
2022-11-17T21:25:35.712Z,98.34
2022-11-17T21:28:07.569Z,98.24
2022-11-17T21:30:39.438Z,98.83
2022-11-17T21:33:11.385Z,98.26
2022-11-17T21:35:43.531Z,98.28
2022-11-17T21:38:15.578Z,98.10
2022-11-17T21:40:47.398Z,98.03
2022-11-17T21:43:19.459Z,98.22
2022-11-17T21:45:51.383Z,98.27
2022-11-17T21:48:23.289Z,97.77
2022-11-17T21:50:55.507Z,97.62
2022-11-17T21:53:28.152Z,97.89
2022-11-17T21:56:01.569Z,98.05
2022-11-17T21:58:33.936Z,97.90
2022-11-17T22:01:33.990Z,97.82
2022-11-17T22:04:06.900Z,97.74
2022-11-17T22:06:39.154Z,97.64
2022-11-17T22:09:11.497Z,97.46
2022-11-17T22:11:43.425Z,98.10
2022-11-17T22:14:19.656Z,97.10
2022-11-17T22:16:53.164Z,97.93
2022-11-17T22:19:28.288Z,97.97
2022-11-17T22:22:00.095Z,97.93
2022-11-17T22:24:32.015Z,98.38
2022-11-17T22:27:04.031Z,97.40
2022-11-17T22:29:35.990Z,97.54
2022-11-17T22:32:07.838Z,97.46
2022-11-17T22:34:39.678Z,98.16
2022-11-17T22:37:11.844Z,97.92
2022-11-17T22:39:43.686Z,98.35
2022-11-17T22:42:18.682Z,98.42
2022-11-17T22:44:50.624Z,98.41
2022-11-17T22:47:22.445Z,98.61
2022-11-17T22:49:54.263Z,98.29
2022-11-17T22:52:26.197Z,97.65
2022-11-17T22:54:58.094Z,98.04
2022-11-17T22:57:29.969Z,98.34
2022-11-17T23:00:02.132Z,97.76
2022-11-17T23:02:37.053Z,97.25
2022-11-17T23:05:09.193Z,97.83
2022-11-17T23:07:41.110Z,97.99
2022-11-17T23:10:13.298Z,98.27
2022-11-17T23:12:45.168Z,98.16
2022-11-17T23:15:17.147Z,98.03
2022-11-17T23:17:49.245Z,97.71
2022-11-17T23:20:21.143Z,98.04
2022-11-17T23:22:56.389Z,97.65
2022-11-17T23:25:28.525Z,96.97
2022-11-17T23:28:01.439Z,97.35
2022-11-17T23:30:33.655Z,97.74
2022-11-17T23:33:05.554Z,98.18
2022-11-17T23:35:37.455Z,98.20
2022-11-17T23:38:09.246Z,98.27
2022-11-17T23:40:41.101Z,97.59
2022-11-17T23:43:13.025Z,97.85
2022-11-17T23:45:44.868Z,97.83
2022-11-17T23:48:16.701Z,97.84
2022-11-17T23:50:48.549Z,98.26
2022-11-17T23:53:20.448Z,97.79
2022-11-17T23:55:55.839Z,98.13
2022-11-17T23:58:28.395Z,98.46
